Time;durP1;ratioP1;P1;durP2;ratioP2;P2;SDS_P1;SDS_P2;PMS_P1;PMS_P2;Temp;Humidity;BMP_temperature;BMP_pressure;BME280_temperature;BME280_humidity;BME280_pressure;Samples;Min_cycle;Max_cycle;Signal;HPM_P1;HPM_P2
2023/03/04 00:01:53;;;;;;;;;51.00;26.75;;;;;5.06;100.00;102382.53;5016021;28;45290;-81
2023/03/04 00:04:18;;;;;;;;;42.75;27.50;;;;;4.99;100.00;102379.81;4997973;28;45449;-81
2023/03/04 00:06:43;;;;;;;;;36.50;26.25;;;;;4.94;100.00;102386.59;5015421;28;59465;-81
2023/03/04 00:09:09;;;;;;;;;34.25;28.50;;;;;4.91;98.96;102386.53;5015126;28;66685;-81
2023/03/04 00:11:34;;;;;;;;;49.25;33.00;;;;;4.91;100.00;102388.25;5016004;28;45299;-81
2023/03/04 00:13:59;;;;;;;;;42.00;30.50;;;;;4.94;100.00;102394.34;5015609;28;49033;-81
2023/03/04 00:16:26;;;;;;;;;40.00;30.50;;;;;4.92;100.00;102389.97;5033472;28;46196;-81
2023/03/04 00:18:52;;;;;;;;;46.50;33.75;;;;;4.90;100.00;102389.06;5035276;28;45409;-81
2023/03/04 00:21:17;;;;;;;;;37.75;27.50;;;;;4.88;100.00;102386.47;5017927;28;45479;-81
2023/03/04 00:23:43;;;;;;;;;42.50;28.25;;;;;4.89;100.00;102395.09;5035180;28;56145;-81
2023/03/04 00:26:08;;;;;;;;;50.50;33.50;;;;;4.88;100.00;102398.50;5035424;28;46316;-81
2023/03/04 00:28:34;;;;;;;;;55.00;35.25;;;;;4.88;100.00;102404.53;5035510;28;45531;-82
2023/03/04 00:30:59;;;;;;;;;51.00;32.50;;;;;4.87;100.00;102402.78;5035131;28;54275;-81
2023/03/04 00:33:24;;;;;;;;;44.50;33.25;;;;;4.87;100.00;102399.31;5017312;28;45633;-81
2023/03/04 00:35:50;;;;;;;;;40.75;31.50;;;;;4.88;100.00;102404.53;5017564;28;47186;-81
2023/03/04 00:38:15;;;;;;;;;47.75;32.50;;;;;4.88;100.00;102401.94;5001020;28;45456;-82
2023/03/04 00:40:41;;;;;;;;;39.75;28.00;;;;;4.88;100.00;102401.94;5035118;28;50392;-81
2023/03/04 00:43:06;;;;;;;;;43.75;34.00;;;;;4.88;100.00;102404.53;5037713;28;45388;-81
2023/03/04 00:45:31;;;;;;;;;59.25;36.25;;;;;4.88;100.00;102407.09;5038180;28;66468;-81
2023/03/04 00:47:57;;;;;;;;;47.00;34.75;;;;;4.88;100.00;102404.53;5038367;28;45301;-82
2023/03/04 00:50:22;;;;;;;;;48.25;32.75;;;;;4.87;100.00;102407.06;5029254;28;60350;-81
2023/03/04 00:52:47;;;;;;;;;38.75;30.50;;;;;4.87;100.00;102409.66;5018648;28;48162;-82
2023/03/04 00:55:13;;;;;;;;;52.75;37.00;;;;;4.87;100.00;102412.22;5018403;28;59446;-82
2023/03/04 00:57:38;;;;;;;;;52.50;34.00;;;;;4.86;100.00;102408.78;5018594;28;45309;-82
2023/03/04 01:00:04;;;;;;;;;53.00;35.50;;;;;4.85;100.00;102412.22;5018310;28;57645;-81
2023/03/04 01:02:29;;;;;;;;;40.25;28.75;;;;;4.83;100.00;102413.91;5018386;28;45322;-82
2023/03/04 01:04:55;;;;;;;;;37.75;28.00;;;;;4.82;100.00;102413.00;5000153;28;71733;-81
2023/03/04 01:07:20;;;;;;;;;49.75;34.00;;;;;4.79;100.00;102406.91;5018642;28;45399;-81
2023/03/04 01:09:45;;;;;;;;;57.50;36.25;;;;;4.80;100.00;102413.81;5018183;28;54832;-81
2023/03/04 01:12:11;;;;;;;;;53.00;32.50;;;;;4.78;100.00;102410.34;5018596;28;45296;-82
2023/03/04 01:14:36;;;;;;;;;46.75;32.00;;;;;4.79;100.00;102410.38;5020946;28;52056;-81
2023/03/04 01:17:02;;;;;;;;;45.75;34.50;;;;;4.81;100.00;102410.38;5038212;28;45411;-82
2023/03/04 01:19:27;;;;;;;;;56.75;31.00;;;;;4.81;100.00;102405.22;5019847;28;64730;-81
2023/03/04 01:21:52;;;;;;;;;41.50;34.50;;;;;4.82;100.00;102409.56;5020638;28;45437;-81
2023/03/04 01:24:18;;;;;;;;;41.25;28.75;;;;;4.82;100.00;102406.97;5037653;28;64718;-82
2023/03/04 01:26:43;;;;;;;;;33.50;26.75;;;;;4.80;100.00;102406.06;5038204;28;45295;-82
2023/03/04 01:29:09;;;;;;;;;40.25;29.00;;;;;4.80;100.00;102406.94;5037652;28;58202;-81
2023/03/04 01:31:34;;;;;;;;;51.00;36.75;;;;;4.78;100.00;102403.47;5037198;28;64375;-81
2023/03/04 01:33:59;;;;;;;;;48.75;31.75;;;;;4.78;100.00;102402.59;5020176;28;46068;-82
2023/03/04 01:36:25;;;;;;;;;41.75;32.75;;;;;4.77;100.00;102401.75;5037442;28;66870;-81
2023/03/04 01:38:50;;;;;;;;;37.75;28.25;;;;;4.75;100.00;102397.34;5037463;28;64618;-81
2023/03/04 01:41:19;;;;;;;;;48.75;28.00;;;;;4.74;100.00;102401.66;5037299;28;60418;-82
2023/03/04 01:43:45;;;;;;;;;34.25;27.50;;;;;4.71;100.00;102404.16;5020213;28;45324;-81
2023/03/04 01:46:13;;;;;;;;;39.50;30.50;;;;;4.71;100.00;102399.00;5019856;28;45345;-82
2023/03/04 01:48:40;;;;;;;;;40.25;26.00;;;;;4.70;100.00;102396.38;5037948;28;45296;-81
2023/03/04 01:51:11;;;;;;;;;45.00;29.00;;;;;4.68;100.00;102390.31;5005321;28;45483;-82
2023/03/04 01:53:36;;;;;;;;;50.00;35.25;;;;;4.67;100.00;102388.59;5000158;28;45402;-82
2023/03/04 01:56:11;;;;;;;;;46.75;33.25;;;;;4.69;100.00;102384.34;4999483;28;68126;-81
2023/03/04 01:58:37;;;;;;;;;45.25;35.00;;;;;4.68;100.00;102387.75;5000319;28;45408;-81
2023/03/04 02:01:02;;;;;;;;;35.50;29.25;;;;;4.63;100.00;102385.06;5016873;28;67402;-82
2023/03/04 02:03:28;;;;;;;;;39.75;29.75;;;;;4.59;100.00;102381.56;5017907;28;45404;-81
2023/03/04 02:05:54;;;;;;;;;43.50;32.75;;;;;4.56;100.00;102383.19;5017370;28;62419;-82
2023/03/04 02:08:21;;;;;;;;;44.00;30.50;;;;;4.51;100.00;102380.50;5000313;28;45405;-82
2023/03/04 02:10:47;;;;;;;;;54.25;37.00;;;;;4.49;100.00;102386.47;5017785;28;45592;-81
2023/03/04 02:13:14;;;;;;;;;40.25;30.75;;;;;4.43;100.00;102380.31;5017812;28;45306;-81
2023/03/04 02:15:40;;;;;;;;;48.50;32.00;;;;;4.40;100.00;102382.84;5011191;28;45340;-81
2023/03/04 02:18:15;;;;;;;;;45.50;29.25;;;;;4.39;100.00;102386.25;5037708;28;45350;-81
2023/03/04 02:20:47;;;;;;;;;48.50;33.75;;;;;4.40;100.00;102393.16;5019945;28;45929;-81
2023/03/04 02:23:37;;;;;;;;;44.25;32.00;;;;;4.40;100.00;102389.69;5037217;28;45381;-81
2023/03/04 02:26:22;;;;;;;;;52.00;30.00;;;;;4.38;100.00;102384.53;5037418;28;45973;-81
2023/03/04 02:28:49;;;;;;;;;41.00;31.25;;;;;4.41;100.00;102381.13;5019318;28;45432;-81
2023/03/04 02:31:21;;;;;;;;;43.50;31.50;;;;;4.42;100.00;102383.75;5019524;28;45490;-81
2023/03/04 02:33:46;;;;;;;;;43.25;28.00;;;;;4.39;100.00;102385.41;5037303;28;46302;-81
2023/03/04 02:36:11;;;;;;;;;46.75;36.00;;;;;4.35;100.00;102381.00;5019580;28;45398;-82
2023/03/04 02:38:37;;;;;;;;;48.25;28.75;;;;;4.27;100.00;102378.22;5037143;28;45424;-81
2023/03/04 02:41:03;;;;;;;;;43.75;33.00;;;;;4.23;100.00;102379.00;5018538;28;64414;-81
2023/03/04 02:43:29;;;;;;;;;46.50;33.00;;;;;4.18;100.00;102366.00;5017996;28;64834;-81
2023/03/04 02:45:54;;;;;;;;;59.50;36.25;;;;;4.11;100.00;102371.00;5018384;28;66071;-81
2023/03/04 02:48:21;;;;;;;;;52.25;37.75;;;;;4.08;100.00;102366.63;5036928;28;45406;-81
2023/03/04 02:50:49;;;;;;;;;45.75;33.75;;;;;4.06;100.00;102370.88;5007221;28;45299;-81
2023/03/04 02:53:15;;;;;;;;;46.75;35.75;;;;;4.02;100.00;102363.91;4999312;28;46363;-81
2023/03/04 02:55:45;;;;;;;;;46.25;30.25;;;;;4.00;100.00;102360.41;5016982;28;45343;-82
2023/03/04 02:58:10;;;;;;;;;43.25;33.50;;;;;3.95;100.00;102360.28;4999401;28;45468;-81
2023/03/04 03:00:36;;;;;;;;;45.00;31.25;;;;;3.93;100.00;102356.81;4999259;28;45389;-81
2023/03/04 03:03:02;;;;;;;;;37.50;28.50;;;;;3.85;100.00;102348.91;5016844;28;46248;-81
2023/03/04 03:05:31;;;;;;;;;47.25;28.00;;;;;3.83;100.00;102347.13;5016386;28;45465;-81
2023/03/04 03:07:56;;;;;;;;;48.50;35.50;;;;;3.76;100.00;102358.09;5016807;28;45478;-81
2023/03/04 03:10:22;;;;;;;;;50.00;33.75;;;;;3.71;100.00;102352.81;5016109;28;63485;-82
2023/03/04 03:12:47;;;;;;;;;41.50;31.00;;;;;3.67;100.00;102354.44;5016163;28;46366;-82
2023/03/04 03:15:13;;;;;;;;;53.50;35.00;;;;;3.64;100.00;102349.25;5023680;28;67327;-81
2023/03/04 03:17:39;;;;;;;;;45.50;32.25;;;;;3.58;100.00;102346.50;5036755;28;45330;-81
2023/03/04 03:20:05;;;;;;;;;41.00;32.75;;;;;3.50;100.00;102345.44;5035894;28;59698;-81
2023/03/04 03:22:30;;;;;;;;;39.75;27.75;;;;;3.48;100.00;102347.09;5036028;28;46550;-82
2023/03/04 03:24:56;;;;;;;;;44.50;32.25;;;;;3.46;100.00;102344.47;5018069;28;57813;-82
2023/03/04 03:27:21;;;;;;;;;38.75;33.25;;;;;3.50;100.00;102348.00;5036159;28;45330;-81
2023/03/04 03:29:46;;;;;;;;;44.00;29.50;;;;;3.54;100.00;102352.41;5035998;28;53314;-81
2023/03/04 03:32:12;;;;;;;;;53.25;32.75;;;;;3.52;100.00;102345.47;5035561;28;64351;-82
2023/03/04 03:34:37;;;;;;;;;53.50;29.50;;;;;3.51;100.00;102344.63;5035684;28;63816;-82
2023/03/04 03:37:02;;;;;;;;;41.25;27.75;;;;;3.46;100.00;102354.78;5035547;28;64701;-81
2023/03/04 03:39:28;;;;;;;;;52.25;36.75;;;;;3.43;100.00;102352.09;5036164;28;45305;-81
2023/03/04 03:41:53;;;;;;;;;52.50;36.00;;;;;3.36;100.00;102351.91;5034871;28;70611;-81
2023/03/04 03:44:18;;;;;;;;;45.50;33.50;;;;;3.28;100.00;102347.44;5035188;28;68763;-82
2023/03/04 03:46:44;;;;;;;;;47.00;32.50;;;;;3.26;100.00;102345.66;5035409;28;59701;-81
2023/03/04 03:49:09;;;;;;;;;54.00;42.50;;;;;3.22;100.00;102352.41;5035854;28;45275;-81
2023/03/04 03:51:34;;;;;;;;;38.75;30.75;;;;;3.15;100.00;102352.22;5016433;28;61702;-81
2023/03/04 03:54:00;;;;;;;;;45.50;34.50;;;;;3.10;100.00;102357.22;5015229;28;68571;-81
2023/03/04 03:56:25;;;;;;;;;50.50;38.00;;;;;3.06;100.00;102355.38;5015049;28;63729;-81
2023/03/04 03:58:50;;;;;;;;;44.75;32.50;;;;;3.03;100.00;102360.47;5015331;28;58774;-81
2023/03/04 04:01:16;;;;;;;;;40.50;35.50;;;;;2.98;100.00;102359.47;5015044;28;67838;-81
2023/03/04 04:03:41;;;;;;;;;28.00;19.50;;;;;2.94;100.00;102360.22;4997800;28;59644;-81
2023/03/04 04:06:06;;;;;;;;;44.00;34.75;;;;;2.91;100.00;102356.69;5016094;28;45315;-81
2023/03/04 04:08:32;;;;;;;;;55.25;32.00;;;;;2.92;100.00;102370.44;4997414;28;64355;-81
2023/03/04 04:10:57;;;;;;;;;32.00;24.50;;;;;2.89;100.00;102362.63;5015407;28;45360;-81
2023/03/04 04:13:23;;;;;;;;;46.50;34.00;;;;;2.88;100.00;102372.06;5015782;28;45342;-81
2023/03/04 04:15:50;;;;;;;;;33.00;27.25;;;;;2.87;100.00;102372.00;5028062;28;58103;-81
2023/03/04 04:18:15;;;;;;;;;41.25;31.75;;;;;2.87;100.00;102364.28;5016975;28;45453;-81
2023/03/04 04:20:41;;;;;;;;;34.25;24.75;;;;;2.84;100.00;102370.22;5035457;28;46423;-81
2023/03/04 04:23:06;;;;;;;;;52.75;28.25;;;;;2.81;100.00;102372.72;5034693;28;68934;-81
2023/03/04 04:25:31;;;;;;;;;47.75;30.75;;;;;2.78;100.00;102372.59;5035128;28;45442;-80
2023/03/04 04:27:57;;;;;;;;;37.00;21.50;;;;;2.74;100.00;102375.91;5035090;28;57125;-80
2023/03/04 04:30:22;;;;;;;;;47.00;33.25;;;;;2.75;100.00;102369.06;5034897;28;63494;-81
2023/03/04 04:32:47;;;;;;;;;40.75;28.00;;;;;2.72;100.00;102375.00;5035527;28;45469;-82
2023/03/04 04:35:13;;;;;;;;;41.75;26.50;;;;;2.70;100.00;102381.81;5035218;28;52146;-81
2023/03/04 04:37:38;;;;;;;;;55.50;34.00;;;;;2.65;100.00;102380.78;5017092;28;53712;-81
2023/03/04 04:40:04;;;;;;;;;35.00;29.00;;;;;2.62;100.00;102375.53;5034580;28;60298;-81
2023/03/04 04:42:30;;;;;;;;;42.50;24.50;;;;;2.60;100.00;102380.66;5035374;28;45844;-81
2023/03/04 04:44:56;;;;;;;;;44.00;32.50;;;;;2.59;100.00;102381.47;5017708;28;45368;-81
2023/03/04 04:47:21;;;;;;;;;43.75;33.00;;;;;2.58;100.00;102384.00;5035347;28;45332;-81
2023/03/04 04:49:47;;;;;;;;;43.00;29.00;;;;;2.55;100.00;102387.34;5030893;28;48225;-81
2023/03/04 04:52:12;;;;;;;;;52.00;34.75;;;;;2.60;100.00;102393.53;5014530;28;67479;-81
2023/03/04 04:54:37;;;;;;;;;47.25;30.25;;;;;2.57;100.00;102390.84;5014883;28;45362;-81
2023/03/04 04:57:03;;;;;;;;;48.00;29.25;;;;;2.57;100.00;102400.25;5015389;28;45287;-81
2023/03/04 04:59:28;;;;;;;;;40.50;31.75;;;;;2.55;100.00;102391.63;4996542;28;67635;-81
2023/03/04 05:01:53;;;;;;;;;40.00;30.00;;;;;2.50;100.00;102394.06;5014547;28;58022;-81
2023/03/04 05:04:19;;;;;;;;;49.25;36.50;;;;;2.48;100.00;102399.13;4996643;28;64755;-81
2023/03/04 05:06:44;;;;;;;;;48.50;28.50;;;;;2.44;100.00;102397.31;5015039;28;45527;-81
2023/03/04 05:09:10;;;;;;;;;56.00;36.50;;;;;2.43;100.00;102408.41;5014090;28;68980;-81
2023/03/04 05:11:36;;;;;;;;;50.00;36.50;;;;;2.37;100.00;102413.34;4997260;28;45356;-81
2023/03/04 05:14:01;;;;;;;;;50.50;31.25;;;;;2.32;100.00;102409.75;5015298;28;45585;-81
2023/03/04 05:16:26;;;;;;;;;49.25;35.75;;;;;2.33;100.00;102414.09;5033192;28;45340;-81
2023/03/04 05:18:52;;;;;;;;;49.00;36.50;;;;;2.35;100.00;102412.44;5033990;28;69660;-81
2023/03/04 05:21:17;;;;;;;;;45.50;30.75;;;;;2.38;100.00;102421.94;5034384;28;60606;-81
2023/03/04 05:23:43;;;;;;;;;48.00;31.00;;;;;2.40;100.00;102407.47;5034663;28;46696;-81
2023/03/04 05:26:12;;;;;;;;;45.25;34.00;;;;;2.37;100.00;102412.50;5034934;28;45346;-81
2023/03/04 05:28:37;;;;;;;;;47.75;30.75;;;;;2.33;100.00;102420.09;5018282;28;46239;-81
2023/03/04 05:31:03;;;;;;;;;61.00;33.00;;;;;2.35;100.00;102414.13;5037315;28;67565;-81
2023/03/04 05:33:29;;;;;;;;;52.75;35.25;;;;;2.33;100.00;102411.50;5020431;28;45337;-81
2023/03/04 05:35:54;;;;;;;;;47.00;32.00;;;;;2.32;100.00;102408.09;5038253;28;45296;-81
2023/03/04 05:38:20;;;;;;;;;49.25;36.75;;;;;2.26;100.00;102407.00;5037262;28;57685;-81
2023/03/04 05:40:47;;;;;;;;;49.25;36.75;;;;;2.22;100.00;102407.72;5038037;28;45416;-81
2023/03/04 05:43:12;;;;;;;;;42.75;30.50;;;;;2.21;100.00;102408.53;5038392;28;45313;-81
2023/03/04 05:45:38;;;;;;;;;51.25;35.00;;;;;2.18;100.00;102417.03;5038273;28;45433;-81
2023/03/04 05:48:04;;;;;;;;;48.25;36.50;;;;;2.16;100.00;102415.25;5021212;28;46200;-81
2023/03/04 05:50:30;;;;;;;;;47.25;30.50;;;;;2.15;100.00;102405.78;5037700;28;45989;-81
2023/03/04 05:52:55;;;;;;;;;47.00;32.50;;;;;2.12;100.00;102412.56;5037727;28;45305;-81
2023/03/04 05:55:21;;;;;;;;;49.75;31.25;;;;;2.13;100.00;102414.31;5038121;28;45339;-81
2023/03/04 05:57:46;;;;;;;;;68.25;42.00;;;;;2.10;100.00;102408.22;5037866;28;46039;-81
2023/03/04 06:00:13;;;;;;;;;30.25;30.25;;;;;2.07;100.00;102413.25;5037893;28;45404;-81
2023/03/04 06:02:39;;;;;;;;;37.75;28.25;;;;;2.09;100.00;102409.88;5037824;28;45356;-81
2023/03/04 06:05:06;;;;;;;;;47.00;33.50;;;;;2.10;100.00;102414.22;5037839;28;45480;-81
2023/03/04 06:07:31;;;;;;;;;38.50;29.25;;;;;2.10;100.00;102418.50;5035962;28;46259;-81
2023/03/04 06:09:57;;;;;;;;;47.00;32.75;;;;;2.07;100.00;102424.38;5036306;28;45390;-81
2023/03/04 06:12:22;;;;;;;;;36.50;30.75;;;;;2.07;100.00;102421.81;5037703;28;45289;-81
2023/03/04 06:14:47;;;;;;;;;38.25;21.25;;;;;2.08;100.00;102430.38;5037467;28;45372;-81
2023/03/04 06:17:13;;;;;;;;;47.50;33.25;;;;;2.09;100.00;102427.00;5036663;28;71415;-81
2023/03/04 06:19:40;;;;;;;;;51.25;34.50;;;;;2.13;100.00;102431.41;5036797;28;61880;-81
2023/03/04 06:22:06;;;;;;;;;39.75;29.25;;;;;2.18;100.00;102439.28;5035937;28;45384;-81
2023/03/04 06:24:32;;;;;;;;;40.50;31.00;;;;;2.14;100.00;102438.31;5036314;28;45357;-82
2023/03/04 06:26:57;;;;;;;;;48.50;24.75;;;;;2.10;100.00;102431.34;5037269;28;46473;-81
2023/03/04 06:29:22;;;;;;;;;35.25;24.75;;;;;2.07;100.00;102433.78;5036537;28;68608;-81
2023/03/04 06:31:48;;;;;;;;;42.50;36.25;;;;;2.06;100.00;102432.94;5035852;28;48716;-81
2023/03/04 06:34:13;;;;;;;;;41.00;29.25;;;;;2.02;100.00;102438.75;5035327;28;63584;-82
2023/03/04 06:36:38;;;;;;;;;42.75;32.50;;;;;2.02;100.00;102440.47;5036093;28;69394;-81
2023/03/04 06:39:05;;;;;;;;;49.25;32.00;;;;;2.00;100.00;102444.69;5037198;28;45324;-81
2023/03/04 06:41:31;;;;;;;;;42.25;24.25;;;;;1.96;100.00;102443.69;5036495;28;45513;-82
2023/03/04 06:43:56;;;;;;;;;51.00;35.00;;;;;1.93;100.00;102453.84;5037228;28;45523;-81
2023/03/04 06:46:22;;;;;;;;;43.25;29.50;;;;;1.94;100.00;102450.50;5035816;28;45439;-82
2023/03/04 06:48:47;;;;;;;;;43.50;31.50;;;;;1.96;100.00;102451.41;5035409;28;45346;-81
2023/03/04 06:51:13;;;;;;;;;37.00;32.00;;;;;2.02;100.00;102458.44;5036024;28;59570;-81
2023/03/04 06:53:39;;;;;;;;;47.00;32.25;;;;;2.05;100.00;102456.84;5037094;28;45420;-81
2023/03/04 06:56:05;;;;;;;;;45.00;37.00;;;;;2.08;100.00;102459.53;5035633;28;45502;-81
2023/03/04 06:58:31;;;;;;;;;35.50;34.00;;;;;2.10;100.00;102457.03;5036814;28;45278;-82
2023/03/04 07:00:56;;;;;;;;;41.00;34.25;;;;;2.15;100.00;102457.16;5037003;28;45344;-81
2023/03/04 07:03:22;;;;;;;;;47.75;36.25;;;;;2.21;100.00;102459.94;5037068;28;45305;-82
2023/03/04 07:05:47;;;;;;;;;54.50;40.25;;;;;2.24;100.00;102457.47;5036274;28;46034;-82
2023/03/04 07:08:13;;;;;;;;;49.25;34.00;;;;;2.30;100.00;102462.81;5036137;28;61266;-82
2023/03/04 07:10:39;;;;;;;;;55.75;35.00;;;;;2.35;100.00;102461.25;5035555;28;45310;-81
2023/03/04 07:13:04;;;;;;;;;41.75;34.25;;;;;2.38;100.00;102470.75;5034820;28;65385;-81
2023/03/04 07:15:29;;;;;;;;;45.25;31.50;;;;;2.40;100.00;102470.00;5035254;28;47984;-82
2023/03/04 07:17:55;;;;;;;;;44.00;33.00;;;;;2.39;100.00;102473.38;5034981;28;54575;-82
2023/03/04 07:20:20;;;;;;;;;36.75;30.50;;;;;2.41;100.00;102471.72;5035565;28;62569;-82
2023/03/04 07:22:46;;;;;;;;;43.25;36.25;;;;;2.43;100.00;102471.78;5035721;28;65020;-81
2023/03/04 07:25:11;;;;;;;;;42.25;32.75;;;;;2.47;100.00;102469.38;5035268;28;49049;-82
2023/03/04 07:27:39;;;;;;;;;38.50;24.50;;;;;2.48;100.00;102477.97;5035157;28;47331;-82
2023/03/04 07:30:06;;;;;;;;;42.00;28.50;;;;;2.47;100.00;102471.94;5036586;28;45282;-82
2023/03/04 07:32:33;;;;;;;;;42.50;29.00;;;;;2.51;100.00;102476.38;5035367;28;45542;-81
2023/03/04 07:34:58;;;;;;;;;41.50;30.50;;;;;2.57;100.00;102480.81;5035873;28;45396;-81
2023/03/04 07:37:24;;;;;;;;;42.75;32.25;;;;;2.63;100.00;102482.72;5036174;28;45364;-81
2023/03/04 07:39:49;;;;;;;;;44.75;29.75;;;;;2.66;100.00;102485.41;5036436;28;45338;-81
2023/03/04 07:42:14;;;;;;;;;46.00;39.50;;;;;2.65;100.00;102487.06;5035765;28;55382;-82
2023/03/04 07:44:40;;;;;;;;;45.25;28.50;;;;;2.67;100.00;102488.00;5036064;28;45891;-82
2023/03/04 07:47:05;;;;;;;;;41.75;32.00;;;;;2.69;100.00;102488.94;5035355;28;68602;-81
2023/03/04 07:49:30;;;;;;;;;48.00;35.25;;;;;2.73;100.00;102487.34;5034010;28;47553;-82
2023/03/04 07:51:56;;;;;;;;;42.75;36.25;;;;;2.76;100.00;102490.00;5035167;28;65591;-81
2023/03/04 07:54:21;;;;;;;;;51.00;31.25;;;;;2.79;100.00;102495.25;5035282;28;68455;-81
2023/03/04 07:56:46;;;;;;;;;45.75;33.00;;;;;2.84;100.00;102497.94;5035246;28;66872;-82
2023/03/04 07:59:12;;;;;;;;;42.25;35.50;;;;;2.90;100.00;102493.00;5036325;28;45452;-82
2023/03/04 08:01:37;;;;;;;;;50.50;33.50;;;;;2.97;100.00;102496.63;5034236;28;58737;-81
2023/03/04 08:04:06;;;;;;;;;43.75;35.00;;;;;3.06;100.00;102497.78;5035307;28;46939;-82
2023/03/04 08:06:32;;;;;;;;;50.25;32.25;;;;;3.19;100.00;102506.72;5034701;28;45354;-81
2023/03/04 08:09:00;;;;;;;;;56.50;42.75;;;;;3.30;100.00;102507.91;5036074;28;45376;-81
2023/03/04 08:11:26;;;;;;;;;45.75;33.50;;;;;3.40;100.00;102508.19;5034508;28;45407;-81
2023/03/04 08:13:53;;;;;;;;;47.75;33.00;;;;;3.47;100.00;102507.53;5035865;28;46540;-81
2023/03/04 08:16:19;;;;;;;;;47.50;35.00;;;;;3.55;100.00;102508.66;5034382;28;45409;-82
2023/03/04 08:18:47;;;;;;;;;51.50;40.50;;;;;3.67;100.00;102502.97;5034538;28;45345;-81
2023/03/04 08:21:13;;;;;;;;;50.75;36.75;;;;;3.80;100.00;102499.03;5034742;28;45553;-82
2023/03/04 08:23:39;;;;;;;;;44.75;38.00;;;;;3.93;100.00;102508.81;5034189;28;45530;-82
2023/03/04 08:26:09;;;;;;;;;53.75;29.75;;;;;4.05;100.00;102504.00;5035666;28;45310;-82
2023/03/04 08:28:35;;;;;;;;;46.00;39.50;;;;;4.19;100.00;102509.50;5034586;28;45438;-81
2023/03/04 08:31:00;;;;;;;;;35.75;27.75;;;;;4.31;100.00;102511.53;5035484;28;45359;-82
2023/03/04 08:33:26;;;;;;;;;51.25;33.25;;;;;4.45;100.00;102506.72;5035005;28;69522;-82
2023/03/04 08:35:51;;;;;;;;;44.50;33.25;;;;;4.60;100.00;102511.38;5035128;28;57469;-81
2023/03/04 08:38:16;;;;;;;;;51.75;36.50;;;;;4.72;100.00;102510.78;5034723;28;62599;-82
2023/03/04 08:40:46;;;;;;;;;53.00;32.25;;;;;4.82;100.00;102508.47;5034706;28;60556;-82
2023/03/04 08:43:11;;;;;;;;;54.75;35.25;;;;;4.93;100.00;102503.56;5050852;28;48110;-82
2023/03/04 08:45:38;;;;;;;;;53.25;34.50;;;;;5.02;100.00;102506.34;5035121;28;45498;-81
2023/03/04 08:48:03;;;;;;;;;51.50;36.25;;;;;5.07;100.00;102503.88;5035274;28;45263;-81
2023/03/04 08:50:28;;;;;;;;;40.50;31.75;;;;;5.17;100.00;102510.13;5025379;28;53246;-82
2023/03/04 08:52:54;;;;;;;;;40.00;34.50;;;;;5.27;100.00;102509.47;5014502;28;71119;-81
2023/03/04 08:55:19;;;;;;;;;54.25;35.00;;;;;5.33;100.00;102516.47;5014507;28;68608;-82
2023/03/04 08:57:44;;;;;;;;;41.50;23.75;;;;;5.42;100.00;102517.56;5015556;28;45300;-81
2023/03/04 09:00:11;;;;;;;;;44.75;34.50;;;;;5.51;100.00;102516.84;4996833;28;50700;-82
2023/03/04 09:02:36;;;;;;;;;43.50;26.00;;;;;5.64;100.00;102523.13;4997365;28;45397;-82
2023/03/04 09:05:02;;;;;;;;;37.50;23.00;;;;;5.72;100.00;102519.00;5018804;28;45299;-81
2023/03/04 09:07:27;;;;;;;;;32.50;23.50;;;;;5.77;100.00;102516.50;5018881;28;45287;-81
2023/03/04 09:09:53;;;;;;;;;29.75;23.75;;;;;5.82;100.00;102520.06;5000712;28;53444;-82
2023/03/04 09:12:18;;;;;;;;;24.50;19.25;;;;;5.89;100.00;102524.50;5018672;28;45400;-82
2023/03/04 09:14:43;;;;;;;;;26.25;18.25;;;;;5.97;100.00;102525.53;5021665;28;58822;-82
2023/03/04 09:17:09;;;;;;;;;30.75;25.50;;;;;6.03;100.00;102521.34;5038157;28;58321;-82
2023/03/04 09:19:35;;;;;;;;;39.00;23.00;;;;;6.07;100.00;102521.41;5020940;28;45405;-82
2023/03/04 09:22:01;;;;;;;;;32.25;18.50;;;;;6.10;100.00;102521.47;5020537;28;45542;-82
2023/03/04 09:24:26;;;;;;;;;32.50;22.50;;;;;6.13;100.00;102526.72;5020624;28;45507;-81
2023/03/04 09:26:52;;;;;;;;;28.75;17.75;;;;;6.19;100.00;102524.22;5019712;28;62474;-82
2023/03/04 09:29:17;;;;;;;;;27.25;20.00;;;;;6.26;100.00;102525.22;5038074;28;45492;-82
2023/03/04 09:31:43;;;;;;;;;30.00;20.00;;;;;6.32;100.00;102527.03;5038215;28;47327;-81
2023/03/04 09:34:08;;;;;;;;;33.75;23.00;;;;;6.37;100.00;102535.72;5020437;28;45390;-81
2023/03/04 09:36:33;;;;;;;;;30.50;19.25;;;;;6.40;100.00;102528.03;5038313;28;45586;-82
2023/03/04 09:39:00;;;;;;;;;40.50;23.00;;;;;6.46;100.00;102522.09;5037467;28;62282;-81
2023/03/04 09:41:38;;;;;;;;;28.00;18.00;;;;;6.53;100.00;102526.50;5020190;28;46510;-82
2023/03/04 09:44:11;;;;;;;;;30.00;20.00;;;;;6.58;100.00;102525.75;5019881;28;45354;-81
2023/03/04 09:46:38;;;;;;;;;28.00;19.25;;;;;6.64;100.00;102522.38;5020386;28;45383;-81
2023/03/04 09:49:04;;;;;;;;;33.50;20.00;;;;;6.72;100.00;102527.69;5029668;28;45613;-82
2023/03/04 09:51:29;;;;;;;;;31.50;20.75;;;;;6.76;100.00;102527.75;5036010;28;62299;-82
2023/03/04 09:54:01;;;;;;;;;33.50;21.75;;;;;6.81;100.00;102537.31;5037953;28;45404;-81
2023/03/04 09:56:26;;;;;;;;;28.50;18.00;;;;;6.81;100.00;102529.53;5036868;28;45408;-82
2023/03/04 09:58:57;;;;;;;;;25.25;19.25;;;;;6.83;100.00;102538.19;5035668;28;61102;-82
2023/03/04 10:01:33;;;;;;;;;28.00;17.00;;;;;6.82;100.00;102528.72;5036438;28;46539;-82
2023/03/04 10:04:10;;;;;;;;;22.75;15.50;;;;;6.88;100.00;102529.66;5037923;28;45931;-82
2023/03/04 10:06:37;;;;;;;;;21.00;14.75;;;;;6.94;100.00;102526.28;5036473;28;45497;-81
2023/03/04 10:09:16;;;;;;;;;20.00;15.00;;;;;6.99;100.00;102527.25;5069477;28;62845;-82
2023/03/04 10:11:58;;;;;;;;;25.25;13.75;;;;;7.04;100.00;102522.09;5036362;28;45866;-82
2023/03/04 10:14:33;;;;;;;;;22.75;16.00;;;;;7.08;99.86;102534.28;5035032;28;45922;-81
2023/03/04 10:17:09;;;;;;;;;28.00;25.25;;;;;7.13;100.00;102530.00;5036241;28;45355;-82
2023/03/04 10:19:43;;;;;;;;;17.25;13.75;;;;;7.16;99.63;102524.88;5037711;28;45355;-82
2023/03/04 10:22:19;;;;;;;;;10.00;9.25;;;;;7.19;100.00;102524.94;5036084;28;45429;-81
2023/03/04 10:24:46;;;;;;;;;22.25;12.00;;;;;7.23;99.77;102521.53;5036135;28;45875;-81
2023/03/04 10:27:15;;;;;;;;;21.75;12.00;;;;;7.28;99.21;102513.81;5037033;28;45386;-81
2023/03/04 10:29:40;;;;;;;;;15.25;7.25;;;;;7.32;99.19;102513.88;5036351;28;45404;-81
2023/03/04 10:32:11;;;;;;;;;13.00;9.25;;;;;7.35;99.43;102511.34;5036829;28;55381;-81
2023/03/04 10:34:36;;;;;;;;;19.25;8.50;;;;;7.35;98.61;102503.56;5036137;28;45896;-81
2023/03/04 10:37:05;;;;;;;;;15.00;8.25;;;;;7.35;98.51;102498.38;5035574;28;55745;-82
2023/03/04 10:39:33;;;;;;;;;23.00;11.75;;;;;7.37;98.58;102506.16;5037365;28;45325;-81
2023/03/04 10:42:04;;;;;;;;;16.50;9.25;;;;;7.35;98.16;102502.69;5035566;28;45463;-82
2023/03/04 10:44:31;;;;;;;;;14.75;11.25;;;;;7.36;98.13;102504.44;5037205;28;45938;-81
2023/03/04 10:46:57;;;;;;;;;18.25;10.75;;;;;7.36;98.15;102510.47;5036034;28;45504;-82
2023/03/04 10:49:26;;;;;;;;;15.25;10.75;;;;;7.41;98.40;102509.66;5036369;28;45330;-82
2023/03/04 10:52:25;;;;;;;;;10.75;7.25;;;;;7.44;98.35;102504.53;4999893;28;45440;-82
2023/03/04 10:54:55;;;;;;;;;13.50;9.00;;;;;7.45;98.07;102504.53;4936452;28;45908;-82
2023/03/04 10:57:25;;;;;;;;;12.00;8.00;;;;;7.48;97.68;102499.38;4936201;28;45464;-82
2023/03/04 10:59:58;;;;;;;;;17.00;10.00;;;;;7.52;98.62;102498.59;4936596;28;45324;-82
2023/03/04 11:02:27;;;;;;;;;20.25;8.75;;;;;7.61;99.21;102487.44;4936355;28;47143;-81
2023/03/04 11:05:13;;;;;;;;;15.00;8.50;;;;;7.68;98.00;102489.25;4936298;28;45529;-81
2023/03/04 11:08:06;;;;;;;;;11.00;8.00;;;;;7.76;98.83;102486.75;4936440;28;45419;-82